Cloverdale, California
Current Conditions -  °F | °C
As of 8:53 AM on Saturday 20 Dec 2014 (Local Time) from KSTS Reporting Station
Haze Haze  
Wind Chill: 53°   Ceiling: 300
Heat Index: 53°   Visibility: 1.5mi
Dew Point: 52°   Wind: 3mph
Humidity: 96%   Direction: 170°S
Pressure: 30.18"   Gusts: NA
Location:  38.81°N, 123.02°W
Report Text: KSTS 201653Z 17003KT 1 1/2SM BR OVC003 12/11 A3018 RMK AO2 SLP213 T01170111
Loading
Personal Weather Stations






























Interactive Weather Map New forecast layout! Learn more

10-Day Weather Forecast

Advertisements
Track Severe Weather on mobile